sensor_id;sensor_type;location;lat;lon;timestamp;pressure;altitude;pressure_sealevel;temperature;humidity
69926;BME280;57217;47.286;8.530;2024-03-08T00:09:45;94935.47;;;0.75;100.00
69926;BME280;57217;47.286;8.530;2024-03-08T00:39:48;94909.59;;;0.66;100.00
69926;BME280;57217;47.286;8.530;2024-03-08T01:09:52;94894.47;;;0.56;100.00
69926;BME280;57217;47.286;8.530;2024-03-08T01:39:54;94865.25;;;0.47;100.00
69926;BME280;57217;47.286;8.530;2024-03-08T02:09:57;94841.44;;;0.45;100.00
69926;BME280;57217;47.286;8.530;2024-03-08T02:40:01;94803.28;;;0.80;100.00
69926;BME280;57217;47.286;8.530;2024-03-08T03:10:04;94785.31;;;1.22;100.00
69926;BME280;57217;47.286;8.530;2024-03-08T03:40:08;94768.88;;;1.18;100.00
69926;BME280;57217;47.286;8.530;2024-03-08T04:10:11;94754.59;;;1.12;100.00
69926;BME280;57217;47.286;8.530;2024-03-08T04:40:15;94736.63;;;1.23;100.00
69926;BME280;57217;47.286;8.530;2024-03-08T05:10:17;94716.94;;;1.25;100.00
69926;BME280;57217;47.286;8.530;2024-03-08T05:40:20;94727.94;;;1.35;100.00
69926;BME280;57217;47.286;8.530;2024-03-08T06:10:22;94703.75;;;1.34;100.00
69926;BME280;57217;47.286;8.530;2024-03-08T06:40:25;94708.53;;;1.32;100.00
69926;BME280;57217;47.286;8.530;2024-03-08T07:10:28;94685.84;;;1.52;100.00
69926;BME280;57217;47.286;8.530;2024-03-08T07:40:31;94683.94;;;1.49;100.00
69926;BME280;57217;47.286;8.530;2024-03-08T08:10:34;94672.75;;;1.87;100.00
69926;BME280;57217;47.286;8.530;2024-03-08T08:40:36;94657.34;;;2.24;100.00
69926;BME280;57217;47.286;8.530;2024-03-08T09:10:39;94629.97;;;2.60;100.00
69926;BME280;57217;47.286;8.530;2024-03-08T09:40:42;94601.41;;;3.31;100.00
69926;BME280;57217;47.286;8.530;2024-03-08T10:10:45;94577.59;;;4.75;100.00
69926;BME280;57217;47.286;8.530;2024-03-08T10:40:48;94537.16;;;6.31;96.83
69926;BME280;57217;47.286;8.530;2024-03-08T11:10:54;94515.28;;;7.57;89.94
69926;BME280;57217;47.286;8.530;2024-03-08T11:40:59;94486.72;;;8.52;83.01
69926;BME280;57217;47.286;8.530;2024-03-08T12:11:03;94432.56;;;9.12;73.97
69926;BME280;57217;47.286;8.530;2024-03-08T12:41:08;94405.00;;;9.90;74.55
69926;BME280;57217;47.286;8.530;2024-03-08T13:11:10;94368.19;;;9.83;72.50
69926;BME280;57217;47.286;8.530;2024-03-08T13:41:16;94333.84;;;10.26;73.14
69926;BME280;57217;47.286;8.530;2024-03-08T14:11:19;94271.09;;;13.92;60.35
69926;BME280;57217;47.286;8.530;2024-03-08T14:41:21;94250.28;;;15.51;48.66
69926;BME280;57217;47.286;8.530;2024-03-08T15:11:26;94205.66;;;10.02;64.72
69926;BME280;57217;47.286;8.530;2024-03-08T15:41:28;94188.34;;;7.97;74.52
69926;BME280;57217;47.286;8.530;2024-03-08T16:11:31;94151.97;;;6.94;79.88
69926;BME280;57217;47.286;8.530;2024-03-08T16:41:36;94117.94;;;6.38;86.27
69926;BME280;57217;47.286;8.530;2024-03-08T17:11:38;94121.47;;;5.48;95.25
69926;BME280;57217;47.286;8.530;2024-03-08T17:41:40;94100.31;;;5.00;100.00
69926;BME280;57217;47.286;8.530;2024-03-08T18:11:43;94097.75;;;4.86;100.00
69926;BME280;57217;47.286;8.530;2024-03-08T18:41:46;94090.72;;;4.61;100.00
69926;BME280;57217;47.286;8.530;2024-03-08T19:11:50;94123.63;;;4.23;100.00
69926;BME280;57217;47.286;8.530;2024-03-08T19:41:53;94115.38;;;3.82;100.00
69926;BME280;57217;47.286;8.530;2024-03-08T20:11:58;94116.84;;;3.72;100.00
69926;BME280;57217;47.286;8.530;2024-03-08T20:42:00;94116.84;;;3.58;100.00
69926;BME280;57217;47.286;8.530;2024-03-08T21:12:03;94137.03;;;3.75;100.00
69926;BME280;57217;47.286;8.530;2024-03-08T21:42:08;94128.41;;;3.68;100.00
69926;BME280;57217;47.286;8.530;2024-03-08T22:12:10;94152.69;;;3.72;100.00
69926;BME280;57217;47.286;8.530;2024-03-08T22:42:13;94170.25;;;3.75;100.00
69926;BME280;57217;47.286;8.530;2024-03-08T23:12:15;94176.59;;;3.70;100.00
69926;BME280;57217;47.286;8.530;2024-03-08T23:42:18;94167.28;;;3.91;100.00
